Time;durP1;ratioP1;P1;durP2;ratioP2;P2;SDS_P1;SDS_P2;PMS_P1;PMS_P2;Temp;Humidity;BMP_temperature;BMP_pressure;BME280_temperature;BME280_humidity;BME280_pressure;Samples;Min_cycle;Max_cycle;Signal;HPM_P1;HPM_P2
2021/08/18 00:10:06;;;;;;;8.28;3.98;;;;;;;15.91;100.00;99661.19;714670;1202;115960;-83
2021/08/18 00:25:09;;;;;;;11.20;3.85;;;;;;;15.80;100.00;99663.30;714056;1185;114590;-83
2021/08/18 00:40:12;;;;;;;9.38;5.03;;;;;;;15.78;100.00;99661.80;714179;1205;114926;-85
2021/08/18 00:55:17;;;;;;;8.95;4.60;;;;;;;15.81;100.00;99664.13;714907;1200;113873;-85
2021/08/18 01:10:27;;;;;;;11.30;6.05;;;;;;;15.87;100.00;99662.56;713941;1200;113297;-85
2021/08/18 01:25:30;;;;;;;10.97;5.30;;;;;;;15.86;100.00;99684.72;714003;1192;114947;-80
2021/08/18 01:40:32;;;;;;;10.65;5.78;;;;;;;15.95;100.00;99671.19;713821;1202;115036;-83
2021/08/18 01:55:35;;;;;;;11.33;5.40;;;;;;;15.95;100.00;99673.03;713653;1200;114069;-83
2021/08/18 02:10:37;;;;;;;15.63;5.75;;;;;;;16.03;100.00;99678.20;713799;1200;115279;-83
2021/08/18 02:25:40;;;;;;;11.20;7.18;;;;;;;16.03;100.00;99662.34;713770;1189;114191;-82
2021/08/18 02:40:43;;;;;;;14.88;7.18;;;;;;;15.93;100.00;99678.52;713940;1200;114793;-82
2021/08/18 02:55:45;;;;;;;14.35;7.80;;;;;;;15.92;100.00;99668.93;713877;1199;114209;-84
2021/08/18 03:10:47;;;;;;;14.43;7.07;;;;;;;15.85;100.00;99685.72;713842;1177;113989;-83
2021/08/18 03:25:49;;;;;;;18.78;8.33;;;;;;;15.57;100.00;99683.70;713803;1177;114051;-83
2021/08/18 03:40:54;;;;;;;14.43;6.70;;;;;;;15.68;100.00;99680.61;713712;1176;114187;-83
2021/08/18 03:55:56;;;;;;;13.75;7.33;;;;;;;15.77;100.00;99668.93;713833;1176;114563;-82
2021/08/18 04:10:58;;;;;;;14.63;7.40;;;;;;;15.89;100.00;99686.98;714020;1196;114212;-83
2021/08/18 04:26:01;;;;;;;14.60;6.70;;;;;;;15.96;100.00;99690.55;714220;1201;115762;-84
2021/08/18 04:41:04;;;;;;;17.20;6.40;;;;;;;15.96;100.00;99685.26;714242;1200;114146;-83
2021/08/18 04:56:06;;;;;;;11.53;6.88;;;;;;;16.07;100.00;99711.22;713968;1200;114264;-82
2021/08/18 05:11:08;;;;;;;11.97;6.80;;;;;;;16.12;100.00;99708.84;714017;1202;114553;-82
2021/08/18 05:26:10;;;;;;;14.80;7.80;;;;;;;16.24;100.00;99717.13;713908;1174;114007;-83
2021/08/18 05:41:13;;;;;;;18.45;7.43;;;;;;;16.41;100.00;99725.66;713972;1200;114406;-84
2021/08/18 05:56:16;;;;;;;14.53;8.20;;;;;;;16.60;100.00;99718.11;714041;1185;115274;-84
2021/08/18 06:11:19;;;;;;;12.58;6.70;;;;;;;16.60;100.00;99724.25;714120;1200;114517;-84
2021/08/18 06:26:21;;;;;;;12.68;7.18;;;;;;;16.71;100.00;99746.75;714142;1200;114621;-82
2021/08/18 06:41:23;;;;;;;13.13;7.00;;;;;;;16.78;100.00;99749.47;715066;1200;114225;-86
2021/08/18 06:56:25;;;;;;;12.90;6.35;;;;;;;17.13;99.97;99755.73;715397;1189;114641;-85
2021/08/18 07:11:28;;;;;;;12.33;5.98;;;;;;;17.10;97.58;99769.38;716173;1199;114111;-85
2021/08/18 07:26:30;;;;;;;10.88;4.95;;;;;;;16.75;96.80;99777.14;715721;1177;113856;-86
2021/08/18 07:41:32;;;;;;;6.68;4.75;;;;;;;16.76;97.49;99792.03;716357;1178;114722;-84
2021/08/18 07:56:35;;;;;;;6.70;4.55;;;;;;;17.10;96.31;99790.56;715289;1199;113814;-73
2021/08/18 08:11:37;;;;;;;10.05;5.10;;;;;;;17.41;93.32;99802.64;714206;1200;114617;-76
2021/08/18 08:26:40;;;;;;;10.25;4.38;;;;;;;17.13;92.34;99811.38;714318;1200;114906;-76
2021/08/18 08:41:43;;;;;;;10.30;4.33;;;;;;;17.96;90.56;99809.98;715547;1200;114665;-77
2021/08/18 08:56:47;;;;;;;9.18;5.70;;;;;;;17.76;86.60;99828.39;714790;1177;114078;-76
2021/08/18 09:11:50;;;;;;;11.63;5.05;;;;;;;17.61;87.04;99834.61;714351;1206;114933;-76
2021/08/18 09:27:06;;;;;;;6.38;3.25;;;;;;;17.93;86.41;99826.30;714085;1199;114773;-76
2021/08/18 09:42:29;;;;;;;6.10;3.38;;;;;;;18.74;81.93;99822.16;714434;1199;114536;-77
2021/08/18 09:57:32;;;;;;;6.77;3.67;;;;;;;19.40;78.73;99826.81;714508;1199;114768;-77
2021/08/18 10:12:35;;;;;;;6.17;3.67;;;;;;;19.34;73.87;99824.16;714047;1200;114203;-77
2021/08/18 10:27:48;;;;;;;7.30;4.60;;;;;;;18.99;75.30;99835.77;714397;1204;114340;-76
2021/08/18 10:42:51;;;;;;;6.95;4.18;;;;;;;18.80;76.71;99842.63;714090;1202;115350;-75
2021/08/18 10:57:59;;;;;;;8.28;3.78;;;;;;;18.45;76.64;99861.31;714380;1199;114516;-79
2021/08/18 11:13:03;;;;;;;8.13;4.05;;;;;;;18.29;77.81;99857.12;714922;1200;115353;-87
2021/08/18 11:28:06;;;;;;;9.43;4.53;;;;;;;18.81;76.69;99851.44;717984;1200;114767;-89
2021/08/18 11:43:09;;;;;;;11.10;5.33;;;;;;;19.06;74.68;99841.91;718892;1178;113801;-90
2021/08/18 11:58:12;;;;;;;14.00;6.27;;;;;;;19.47;73.79;99841.96;719486;1199;114573;-90
2021/08/18 12:13:18;;;;;;;9.85;4.50;;;;;;;20.09;70.40;99831.88;719385;1200;115280;-90
2021/08/18 12:28:24;;;;;;;8.40;5.20;;;;;;;21.38;69.60;99831.86;718954;1200;113522;-91
2021/08/18 12:43:27;;;;;;;7.75;4.20;;;;;;;21.19;66.82;99830.15;719472;1200;115174;-78
2021/08/18 12:58:29;;;;;;;11.13;6.57;;;;;;;21.62;64.02;99810.75;714339;1199;114812;-77
2021/08/18 13:13:31;;;;;;;11.53;6.43;;;;;;;21.35;64.79;99800.25;714477;1200;114287;-76
2021/08/18 13:28:34;;;;;;;15.50;4.90;;;;;;;21.72;63.71;99805.73;714460;1200;114399;-76
2021/08/18 13:43:36;;;;;;;9.27;5.27;;;;;;;20.82;64.02;99816.65;714677;1200;115011;-78
2021/08/18 13:58:39;;;;;;;9.07;5.33;;;;;;;21.35;64.24;99824.27;714299;1200;114825;-75
2021/08/18 14:13:41;;;;;;;7.08;4.50;;;;;;;22.15;63.15;99816.58;714259;1203;115018;-76
2021/08/18 14:28:44;;;;;;;6.28;4.40;;;;;;;25.38;56.05;99798.10;713956;1199;115278;-76
2021/08/18 14:43:47;;;;;;;4.73;3.18;;;;;;;24.75;54.79;99803.47;714285;1200;114622;-82
2021/08/18 14:58:50;;;;;;;9.98;3.88;;;;;;;22.57;58.43;99798.81;715974;1200;113964;-79
2021/08/18 15:13:52;;;;;;;4.63;3.10;;;;;;;23.73;57.69;99797.64;715607;1199;113523;-79
2021/08/18 15:28:54;;;;;;;5.98;3.05;;;;;;;21.86;60.74;99792.25;717429;1177;113471;-79
2021/08/18 15:43:57;;;;;;;6.80;2.80;;;;;;;20.73;63.15;99797.42;714258;1206;114860;-78
2021/08/18 15:59:00;;;;;;;6.20;2.80;;;;;;;20.43;65.58;99788.12;714211;1177;113737;-79
2021/08/18 16:14:02;;;;;;;3.97;2.90;;;;;;;20.49;64.94;99780.31;716076;1205;113801;-80
2021/08/18 16:29:05;;;;;;;4.10;2.57;;;;;;;20.60;66.27;99772.46;715677;1174;113514;-80
2021/08/18 16:44:07;;;;;;;4.90;2.67;;;;;;;20.38;65.10;99758.63;716224;1183;113653;-80
2021/08/18 16:59:09;;;;;;;5.18;2.50;;;;;;;20.04;65.46;99749.97;716239;1202;114907;-80
2021/08/18 17:14:12;;;;;;;5.13;2.93;;;;;;;19.40;67.25;99743.53;715882;1205;114011;-79
2021/08/18 17:29:14;;;;;;;4.90;2.40;;;;;;;18.97;69.43;99747.44;715044;1176;113532;-82
2021/08/18 17:44:17;;;;;;;4.95;3.50;;;;;;;18.75;70.60;99754.73;714704;1203;114468;-80
2021/08/18 17:59:19;;;;;;;4.95;3.08;;;;;;;18.66;72.48;99758.59;715557;1178;114226;-81
2021/08/18 18:14:22;;;;;;;7.38;3.18;;;;;;;18.56;73.45;99751.83;714315;1202;113693;-80
2021/08/18 18:29:26;;;;;;;4.88;3.05;;;;;;;18.38;75.84;99749.73;713946;1203;114381;-80
2021/08/18 18:44:28;;;;;;;5.55;3.20;;;;;;;18.31;76.87;99751.56;714028;1176;113146;-81
2021/08/18 18:59:30;;;;;;;5.93;3.48;;;;;;;18.24;78.18;99748.08;715220;1200;113214;-80
2021/08/18 19:14:33;;;;;;;6.25;3.30;;;;;;;18.19;78.45;99731.92;714624;1202;114320;-80
2021/08/18 19:29:35;;;;;;;6.40;3.75;;;;;;;18.11;80.01;99727.59;716335;1200;114442;-80
2021/08/18 19:44:37;;;;;;;4.90;3.63;;;;;;;18.15;80.04;99722.72;716182;1186;113632;-80
2021/08/18 19:59:39;;;;;;;7.20;3.00;;;;;;;18.08;81.21;99696.97;714941;1200;115521;-81
2021/08/18 20:14:42;;;;;;;4.55;3.63;;;;;;;18.04;81.75;99693.08;717032;1205;113628;-80
2021/08/18 20:29:44;;;;;;;4.88;3.13;;;;;;;18.02;82.20;99703.06;714881;1200;113839;-78
2021/08/18 20:44:49;;;;;;;4.50;2.97;;;;;;;18.07;82.63;99703.28;715399;1199;114417;-78
2021/08/18 20:59:51;;;;;;;6.77;3.73;;;;;;;17.86;84.20;99714.80;714510;1200;113530;-77
2021/08/18 21:14:54;;;;;;;4.00;2.67;;;;;;;17.86;84.91;99719.30;714622;1202;113926;-79
2021/08/18 21:29:56;;;;;;;7.00;3.03;;;;;;;17.69;86.62;99724.91;714791;1202;113662;-79
2021/08/18 21:45:00;;;;;;;3.28;2.70;;;;;;;17.57;87.90;99702.62;714316;1177;113521;-78
2021/08/18 22:00:21;;;;;;;4.43;2.95;;;;;;;17.56;88.32;99708.92;714428;1177;114014;-78
2021/08/18 22:15:23;;;;;;;4.68;2.68;;;;;;;17.57;89.60;99681.41;715400;1177;113674;-80
2021/08/18 22:30:26;;;;;;;6.40;2.83;;;;;;;17.58;89.57;99686.50;714719;1176;113916;-79
2021/08/18 22:45:28;;;;;;;3.33;2.33;;;;;;;17.41;90.73;99679.89;714798;1200;114401;-80
2021/08/18 23:00:30;;;;;;;4.10;2.75;;;;;;;17.41;92.20;99674.58;714515;1177;113684;-79
2021/08/18 23:15:32;;;;;;;5.28;2.43;;;;;;;17.37;93.28;99668.03;714140;1189;113657;-80
2021/08/18 23:30:34;;;;;;;3.58;2.40;;;;;;;17.42;93.37;99665.59;714171;1200;113910;-79
2021/08/18 23:45:37;;;;;;;2.65;2.00;;;;;;;17.45;93.13;99660.72;715702;1203;115032;-78
